Time,TemperatureF,DewpointF,PressureIn,WindDirection,WindDirectionDegrees,WindSpeedMPH,WindSpeedGustMPH,Humidity,HourlyPrecipIn,Conditions,Clouds,dailyrainin,SolarRadiationWatts/m^2,SoftwareType,DateUTC
2013-09-03 00:02:00,76.5,75.0,30.00,East,84,0.0,-999.0,95,-99.99,,,0.00,0,weatherlink.com 1.10,2013-09-03 04:02:00,
2013-09-03 00:17:00,76.4,75.0,30.00,East,84,0.0,-999.0,96,-99.99,,,0.00,0,weatherlink.com 1.10,2013-09-03 04:17:00,
2013-09-03 00:32:00,76.3,75.0,30.00,East,84,0.0,-999.0,96,-99.99,,,0.00,0,weatherlink.com 1.10,2013-09-03 04:32:00,
2013-09-03 00:47:00,76.1,75.0,29.99,East,84,0.0,-999.0,96,-99.99,,,0.00,0,weatherlink.com 1.10,2013-09-03 04:47:00,
2013-09-03 01:02:00,76.0,75.0,29.99,East,84,0.0,-999.0,96,-99.99,,,0.00,0,weatherlink.com 1.10,2013-09-03 05:02:00,
2013-09-03 01:17:00,75.9,75.0,29.98,East,84,0.0,-999.0,96,-99.99,,,0.00,0,weatherlink.com 1.10,2013-09-03 05:17:00,
2013-09-03 01:32:00,76.1,75.0,29.98,East,84,0.0,-999.0,96,-99.99,,,0.00,0,weatherlink.com 1.10,2013-09-03 05:32:00,
2013-09-03 01:47:00,76.1,75.0,29.98,East,84,0.0,-999.0,96,-99.99,,,0.00,0,weatherlink.com 1.10,2013-09-03 05:47:00,
2013-09-03 02:02:00,76.0,75.0,29.98,East,84,0.0,-999.0,96,-99.99,,,0.00,0,weatherlink.com 1.10,2013-09-03 06:02:00,
2013-09-03 02:17:00,75.7,75.0,29.98,East,84,0.0,-999.0,96,-99.99,,,0.00,0,weatherlink.com 1.10,2013-09-03 06:17:00,
2013-09-03 02:32:00,75.6,74.0,29.97,East,84,0.0,-999.0,96,-99.99,,,0.00,0,weatherlink.com 1.10,2013-09-03 06:32:00,
2013-09-03 02:47:00,75.6,74.0,29.97,East,84,0.0,-999.0,96,-99.99,,,0.00,0,weatherlink.com 1.10,2013-09-03 06:47:00,
2013-09-03 03:02:00,75.4,74.0,29.96,East,84,0.0,-999.0,96,-99.99,,,0.00,0,weatherlink.com 1.10,2013-09-03 07:02:00,
2013-09-03 03:17:00,75.4,74.0,29.96,East,84,0.0,-999.0,96,-99.99,,,0.00,0,weatherlink.com 1.10,2013-09-03 07:17:00,
2013-09-03 03:32:00,75.2,74.0,29.96,East,84,0.0,-999.0,96,-99.99,,,0.00,0,weatherlink.com 1.10,2013-09-03 07:32:00,
2013-09-03 03:47:00,75.1,74.0,29.95,East,84,0.0,-999.0,96,-99.99,,,0.00,0,weatherlink.com 1.10,2013-09-03 07:47:00,
2013-09-03 04:02:00,75.2,74.0,29.94,East,84,0.0,-999.0,96,-99.99,,,0.00,0,weatherlink.com 1.10,2013-09-03 08:02:00,
2013-09-03 04:17:00,75.2,74.0,29.94,East,84,0.0,-999.0,96,-99.99,,,0.00,0,weatherlink.com 1.10,2013-09-03 08:17:00,
2013-09-03 04:32:00,75.0,74.0,29.94,East,84,0.0,-999.0,96,-99.99,,,0.00,0,weatherlink.com 1.10,2013-09-03 08:32:00,
2013-09-03 04:47:00,75.0,74.0,29.93,East,84,0.0,-999.0,96,-99.99,,,0.00,0,weatherlink.com 1.10,2013-09-03 08:47:00,
2013-09-03 05:02:00,75.1,74.0,29.94,East,84,0.0,-999.0,96,-99.99,,,0.00,0,weatherlink.com 1.10,2013-09-03 09:02:00,
2013-09-03 05:17:00,75.2,74.0,29.94,East,84,0.0,-999.0,96,-99.99,,,0.00,0,weatherlink.com 1.10,2013-09-03 09:17:00,
2013-09-03 05:32:00,75.1,74.0,29.95,East,84,0.0,-999.0,96,-99.99,,,0.00,0,weatherlink.com 1.10,2013-09-03 09:32:00,
2013-09-03 05:47:00,74.8,74.0,29.95,East,84,0.0,-999.0,96,-99.99,,,0.00,0,weatherlink.com 1.10,2013-09-03 09:47:00,
2013-09-03 06:02:00,74.6,73.0,29.95,East,84,0.0,-999.0,96,-99.99,,,0.00,0,weatherlink.com 1.10,2013-09-03 10:02:00,
2013-09-03 06:17:00,74.6,73.0,29.96,East,84,0.0,-999.0,96,-99.99,,,0.00,0,weatherlink.com 1.10,2013-09-03 10:17:00,
2013-09-03 06:32:00,74.4,73.0,29.96,East,84,0.0,-999.0,96,-99.99,,,0.00,0,weatherlink.com 1.10,2013-09-03 10:32:00,
2013-09-03 06:47:00,74.3,73.0,29.97,East,84,0.0,-999.0,96,-99.99,,,0.00,0,weatherlink.com 1.10,2013-09-03 10:47:00,
2013-09-03 07:02:00,74.3,73.0,29.97,East,84,0.0,-999.0,96,-99.99,,,0.00,0,weatherlink.com 1.10,2013-09-03 11:02:00,
2013-09-03 07:17:00,74.4,73.0,29.97,East,84,0.0,-999.0,96,-99.99,,,0.00,11,weatherlink.com 1.10,2013-09-03 11:17:00,
2013-09-03 07:32:00,74.7,74.0,29.98,East,84,0.0,-999.0,96,-99.99,,,0.00,23,weatherlink.com 1.10,2013-09-03 11:32:00,
2013-09-03 07:47:00,75.3,74.0,29.98,East,84,0.0,-999.0,97,-99.99,,,0.00,30,weatherlink.com 1.10,2013-09-03 11:47:00,
2013-09-03 08:02:00,75.9,75.0,29.98,East,84,0.0,-999.0,96,-99.99,,,0.00,35,weatherlink.com 1.10,2013-09-03 12:02:00,
2013-09-03 08:17:00,76.6,75.0,29.98,East,84,0.0,-999.0,96,-99.99,,,0.00,37,weatherlink.com 1.10,2013-09-03 12:17:00,
2013-09-03 08:32:00,77.3,75.0,29.99,East,84,0.0,-999.0,93,-99.99,,,0.00,40,weatherlink.com 1.10,2013-09-03 12:32:00,
2013-09-03 08:47:00,78.6,76.0,29.99,East,85,0.0,-999.0,90,-99.99,,,0.00,44,weatherlink.com 1.10,2013-09-03 12:47:00,
2013-09-03 09:02:00,80.1,76.0,29.99,East,88,0.0,-999.0,87,-99.99,,,0.00,151,weatherlink.com 1.10,2013-09-03 13:02:00,
2013-09-03 09:17:00,81.4,76.0,30.00,East,87,0.0,-999.0,84,-99.99,,,0.00,105,weatherlink.com 1.10,2013-09-03 13:17:00,
2013-09-03 09:32:00,83.4,77.0,30.01,East,87,0.0,-999.0,81,-99.99,,,0.00,434,weatherlink.com 1.10,2013-09-03 13:32:00,
2013-09-03 09:47:00,85.5,78.0,30.01,ESE,117,0.0,-999.0,77,-99.99,,,0.00,492,weatherlink.com 1.10,2013-09-03 13:47:00,
2013-09-03 10:02:00,87.4,78.0,30.02,ESE,118,0.0,-999.0,74,-99.99,,,0.00,573,weatherlink.com 1.10,2013-09-03 14:02:00,
2013-09-03 10:17:00,88.6,78.0,30.02,SE,126,0.0,-999.0,71,-99.99,,,0.00,615,weatherlink.com 1.10,2013-09-03 14:17:00,
2013-09-03 10:32:00,89.3,77.0,30.02,NE,53,0.0,-999.0,68,-99.99,,,0.00,557,weatherlink.com 1.10,2013-09-03 14:32:00,
2013-09-03 10:47:00,89.9,78.0,30.03,ENE,77,0.0,-999.0,69,-99.99,,,0.00,629,weatherlink.com 1.10,2013-09-03 14:47:00,
2013-09-03 11:02:00,90.2,78.0,30.03,SE,127,0.0,-999.0,67,-99.99,,,0.00,587,weatherlink.com 1.10,2013-09-03 15:02:00,
2013-09-03 11:17:00,90.8,78.0,30.03,SE,128,0.0,-999.0,66,-99.99,,,0.00,628,weatherlink.com 1.10,2013-09-03 15:17:00,
2013-09-03 11:32:00,91.5,78.0,30.03,South,185,0.0,-999.0,64,-99.99,,,0.00,640,weatherlink.com 1.10,2013-09-03 15:32:00,
2013-09-03 11:47:00,92.2,78.0,30.03,SSE,167,1.0,-999.0,64,-99.99,,,0.00,824,weatherlink.com 1.10,2013-09-03 15:47:00,
2013-09-03 12:02:00,92.6,77.0,30.03,East,90,0.0,-999.0,61,-99.99,,,0.00,775,weatherlink.com 1.10,2013-09-03 16:02:00,
2013-09-03 12:17:00,92.8,78.0,30.03,SE,140,0.0,-999.0,62,-99.99,,,0.00,837,weatherlink.com 1.10,2013-09-03 16:17:00,
2013-09-03 12:32:00,92.6,79.0,30.02,SW,216,0.0,-999.0,65,-99.99,,,0.00,874,weatherlink.com 1.10,2013-09-03 16:32:00,
2013-09-03 12:47:00,92.6,78.0,30.02,SSW,211,0.0,-999.0,63,-99.99,,,0.00,577,weatherlink.com 1.10,2013-09-03 16:47:00,
2013-09-03 13:02:00,90.4,78.0,30.01,WSW,243,0.0,-999.0,66,-99.99,,,0.00,403,weatherlink.com 1.10,2013-09-03 17:02:00,
2013-09-03 13:17:00,90.4,79.0,30.01,SW,218,1.0,-999.0,69,-99.99,,,0.00,533,weatherlink.com 1.10,2013-09-03 17:17:00,
2013-09-03 13:32:00,89.0,78.0,30.00,WSW,239,1.0,-999.0,71,-99.99,,,0.00,387,weatherlink.com 1.10,2013-09-03 17:32:00,
2013-09-03 13:47:00,88.1,78.0,30.00,WSW,251,0.0,-999.0,72,-99.99,,,0.00,323,weatherlink.com 1.10,2013-09-03 17:47:00,
2013-09-03 14:02:00,88.1,78.0,30.00,West,261,0.0,-999.0,71,-99.99,,,0.00,341,weatherlink.com 1.10,2013-09-03 18:02:00,
2013-09-03 14:17:00,88.3,78.0,29.99,SW,217,0.0,-999.0,71,-99.99,,,0.00,352,weatherlink.com 1.10,2013-09-03 18:17:00,
2013-09-03 14:32:00,87.8,78.0,29.99,WSW,242,0.0,-999.0,72,-99.99,,,0.00,466,weatherlink.com 1.10,2013-09-03 18:32:00,
2013-09-03 14:47:00,89.2,78.0,29.98,NW,308,0.0,-999.0,70,-99.99,,,0.00,786,weatherlink.com 1.10,2013-09-03 18:47:00,
2013-09-03 15:02:00,91.2,79.0,29.98,WSW,241,0.0,-999.0,67,-99.99,,,0.00,701,weatherlink.com 1.10,2013-09-03 19:02:00,
2013-09-03 15:17:00,91.3,77.0,29.97,WSW,251,0.0,-999.0,63,-99.99,,,0.00,578,weatherlink.com 1.10,2013-09-03 19:17:00,
2013-09-03 15:32:00,90.3,76.0,29.97,SW,218,0.0,-999.0,63,-99.99,,,0.00,438,weatherlink.com 1.10,2013-09-03 19:32:00,
2013-09-03 15:47:00,89.7,75.0,29.96,SW,228,0.0,-999.0,62,-99.99,,,0.00,404,weatherlink.com 1.10,2013-09-03 19:47:00,
2013-09-03 16:02:00,89.9,75.0,29.96,SW,218,0.0,-999.0,62,-99.99,,,0.00,506,weatherlink.com 1.10,2013-09-03 20:02:00,
2013-09-03 16:17:00,90.4,76.0,29.96,WNW,298,0.0,-999.0,62,-99.99,,,0.00,434,weatherlink.com 1.10,2013-09-03 20:17:00,
2013-09-03 16:32:00,90.7,76.0,29.96,West,265,0.0,-999.0,63,-99.99,,,0.00,334,weatherlink.com 1.10,2013-09-03 20:32:00,
2013-09-03 16:47:00,90.4,76.0,29.95,WSW,258,0.0,-999.0,62,-99.99,,,0.00,367,weatherlink.com 1.10,2013-09-03 20:47:00,
2013-09-03 17:02:00,90.0,77.0,29.95,West,275,0.0,-999.0,65,-99.99,,,0.00,269,weatherlink.com 1.10,2013-09-03 21:02:00,
2013-09-03 17:17:00,90.2,77.0,29.95,West,275,0.0,-999.0,66,-99.99,,,0.00,352,weatherlink.com 1.10,2013-09-03 21:17:00,
2013-09-03 17:32:00,89.6,76.0,29.94,West,279,0.0,-999.0,65,-99.99,,,0.00,206,weatherlink.com 1.10,2013-09-03 21:32:00,
2013-09-03 17:47:00,88.6,77.0,29.94,SW,236,0.0,-999.0,68,-99.99,,,0.00,139,weatherlink.com 1.10,2013-09-03 21:47:00,
2013-09-03 18:02:00,87.6,77.0,29.95,SW,236,0.0,-999.0,70,-99.99,,,0.00,142,weatherlink.com 1.10,2013-09-03 22:02:00,
2013-09-03 18:17:00,86.3,76.0,29.95,East,87,0.0,-999.0,72,-99.99,,,0.00,135,weatherlink.com 1.10,2013-09-03 22:17:00,
2013-09-03 18:32:00,85.6,75.0,29.95,East,86,0.0,-999.0,70,-99.99,,,0.00,97,weatherlink.com 1.10,2013-09-03 22:32:00,
2013-09-03 18:47:00,85.4,75.0,29.95,East,86,0.0,-999.0,71,-99.99,,,0.00,70,weatherlink.com 1.10,2013-09-03 22:47:00,
2013-09-03 19:02:00,85.1,74.0,29.96,East,86,0.0,-999.0,70,-99.99,,,0.00,44,weatherlink.com 1.10,2013-09-03 23:02:00,
2013-09-03 19:17:00,84.5,75.0,29.97,East,86,0.0,-999.0,72,-99.99,,,0.00,23,weatherlink.com 1.10,2013-09-03 23:17:00,
2013-09-03 19:32:00,83.5,74.0,29.98,East,86,1.0,-999.0,72,-99.99,,,0.00,7,weatherlink.com 1.10,2013-09-03 23:32:00,
2013-09-03 19:47:00,82.9,74.0,29.98,East,90,0.0,-999.0,75,-99.99,,,0.00,0,weatherlink.com 1.10,2013-09-03 23:47:00,
2013-09-03 20:02:00,82.4,75.0,29.98,ESE,103,0.0,-999.0,78,-99.99,,,0.00,0,weatherlink.com 1.10,2013-09-04 00:02:00,
2013-09-03 20:17:00,82.0,76.0,29.98,ESE,104,0.0,-999.0,81,-99.99,,,0.00,0,weatherlink.com 1.10,2013-09-04 00:17:00,
2013-09-03 20:32:00,81.7,76.0,29.98,ESE,104,0.0,-999.0,83,-99.99,,,0.00,0,weatherlink.com 1.10,2013-09-04 00:32:00,
2013-09-03 20:47:00,81.5,76.0,29.98,ESE,104,0.0,-999.0,83,-99.99,,,0.00,0,weatherlink.com 1.10,2013-09-04 00:47:00,
2013-09-03 21:02:00,81.5,76.0,29.99,ESE,104,0.0,-999.0,84,-99.99,,,0.00,0,weatherlink.com 1.10,2013-09-04 01:02:00,
2013-09-03 21:17:00,81.3,77.0,29.99,ESE,104,0.0,-999.0,85,-99.99,,,0.00,0,weatherlink.com 1.10,2013-09-04 01:17:00,
2013-09-03 21:32:00,81.1,77.0,29.99,ESE,104,0.0,-999.0,86,-99.99,,,0.00,0,weatherlink.com 1.10,2013-09-04 01:32:00,
2013-09-03 21:47:00,80.9,76.0,29.99,ESE,105,0.0,-999.0,86,-99.99,,,0.00,0,weatherlink.com 1.10,2013-09-04 01:47:00,
2013-09-03 22:02:00,80.7,77.0,30.00,ESE,105,0.0,-999.0,87,-99.99,,,0.00,0,weatherlink.com 1.10,2013-09-04 02:02:00,
2013-09-03 22:17:00,80.6,77.0,30.00,ESE,105,0.0,-999.0,87,-99.99,,,0.00,0,weatherlink.com 1.10,2013-09-04 02:17:00,
2013-09-03 22:32:00,80.4,76.0,30.01,ESE,105,0.0,-999.0,87,-99.99,,,0.00,0,weatherlink.com 1.10,2013-09-04 02:32:00,
2013-09-03 22:47:00,80.2,76.0,30.01,ESE,105,0.0,-999.0,87,-99.99,,,0.00,0,weatherlink.com 1.10,2013-09-04 02:47:00,
2013-09-03 23:02:00,80.0,76.0,30.02,ESE,105,0.0,-999.0,87,-99.99,,,0.00,0,weatherlink.com 1.10,2013-09-04 03:02:00,
2013-09-03 23:17:00,79.7,76.0,30.02,ESE,105,0.0,-999.0,88,-99.99,,,0.00,0,weatherlink.com 1.10,2013-09-04 03:17:00,
2013-09-03 23:32:00,79.3,76.0,30.02,ESE,105,0.0,-999.0,89,-99.99,,,0.00,0,weatherlink.com 1.10,2013-09-04 03:32:00,
2013-09-03 23:47:00,79.1,76.0,30.02,ESE,105,0.0,-999.0,89,-99.99,,,0.00,0,weatherlink.com 1.10,2013-09-04 03:47:00,